createdAt,value
2018-11-27T00:00:13.649Z,46.79
2018-11-27T00:05:16.822Z,46.81
2018-11-27T00:10:20.001Z,47.31
2018-11-27T00:15:23.225Z,47.19
2018-11-27T00:20:26.417Z,47.26
2018-11-27T00:25:29.642Z,47.32
2018-11-27T00:30:32.814Z,47.02
2018-11-27T00:35:36.039Z,46.95
2018-11-27T00:40:39.249Z,47.04
2018-11-27T00:45:42.458Z,46.90
2018-11-27T00:50:45.641Z,47.16
2018-11-27T00:55:48.822Z,46.96
2018-11-27T01:00:51.989Z,47.24
2018-11-27T01:05:55.204Z,47.25
2018-11-27T01:10:58.434Z,47.12
2018-11-27T01:16:01.614Z,46.71
2018-11-27T01:21:05.139Z,46.89
2018-11-27T01:26:08.310Z,46.74
2018-11-27T01:31:11.546Z,47.02
2018-11-27T01:36:14.789Z,46.77
2018-11-27T01:41:17.971Z,47.09
2018-11-27T01:46:21.174Z,46.71
2018-11-27T01:51:24.366Z,47.04
2018-11-27T01:56:27.574Z,46.80
2018-11-27T02:01:30.737Z,46.72
2018-11-27T02:06:33.906Z,46.75
2018-11-27T02:11:37.113Z,46.96
2018-11-27T02:16:40.332Z,46.69
2018-11-27T02:21:43.526Z,47.13
2018-11-27T02:26:46.732Z,46.80
2018-11-27T02:31:49.937Z,46.78
2018-11-27T02:36:53.134Z,46.92
2018-11-27T02:41:56.344Z,47.03
2018-11-27T02:46:59.567Z,47.25
2018-11-27T02:52:02.765Z,47.15
2018-11-27T02:57:05.996Z,46.74
2018-11-27T03:02:09.181Z,46.75
2018-11-27T03:07:12.408Z,46.68
2018-11-27T03:12:15.600Z,46.91
2018-11-27T03:17:18.820Z,46.92
2018-11-27T03:22:22.008Z,46.77
2018-11-27T03:27:25.229Z,47.04
2018-11-27T03:32:28.429Z,46.84
2018-11-27T03:37:31.588Z,46.85
2018-11-27T03:42:34.804Z,46.74
2018-11-27T03:47:38.073Z,47.16
2018-11-27T03:52:41.294Z,47.00
2018-11-27T03:57:44.482Z,47.21
2018-11-27T04:02:52.917Z,46.81
2018-11-27T04:07:56.138Z,46.98
2018-11-27T04:12:59.351Z,46.74
2018-11-27T04:18:02.518Z,46.84
2018-11-27T04:23:05.767Z,47.28
2018-11-27T04:28:08.970Z,46.98
2018-11-27T04:33:12.174Z,46.76
2018-11-27T04:38:15.379Z,47.12
2018-11-27T04:43:18.582Z,47.15
2018-11-27T04:48:21.780Z,46.90
2018-11-27T04:53:25.003Z,46.77
2018-11-27T04:58:28.214Z,46.79
2018-11-27T05:03:31.418Z,47.39
2018-11-27T05:08:34.632Z,47.03
2018-11-27T05:13:37.849Z,47.41
2018-11-27T05:18:41.032Z,47.41
2018-11-27T05:23:44.270Z,47.64
2018-11-27T05:28:47.478Z,47.42
2018-11-27T05:33:50.767Z,47.42
2018-11-27T05:38:53.982Z,47.62
2018-11-27T05:43:57.213Z,47.09
2018-11-27T05:49:00.397Z,47.41
2018-11-27T05:54:03.566Z,47.28
2018-11-27T05:59:06.834Z,47.24
2018-11-27T06:04:10.038Z,47.71
2018-11-27T06:09:13.238Z,47.35
2018-11-27T06:14:16.450Z,47.19
2018-11-27T06:19:19.651Z,47.55
2018-11-27T06:24:22.858Z,47.13
2018-11-27T06:29:26.066Z,47.63
2018-11-27T06:34:29.269Z,47.45
2018-11-27T06:39:32.490Z,46.99
2018-11-27T06:44:35.689Z,47.10
2018-11-27T06:49:38.899Z,46.81
2018-11-27T06:54:42.110Z,47.12
2018-11-27T06:59:45.318Z,47.32
2018-11-27T07:04:48.530Z,47.52
2018-11-27T07:09:51.738Z,46.98
2018-11-27T07:14:54.946Z,47.42
2018-11-27T07:19:58.151Z,46.68
2018-11-27T07:25:01.387Z,46.83
2018-11-27T07:30:07.561Z,47.08
2018-11-27T07:35:12.710Z,46.81
2018-11-27T07:40:17.922Z,46.77
2018-11-27T07:45:22.087Z,47.06
2018-11-27T07:50:25.297Z,32.00
2018-11-27T07:55:28.497Z,31.67
2018-11-27T08:00:31.721Z,31.19
2018-11-27T08:05:37.989Z,32.03
2018-11-27T08:10:41.722Z,32.15
2018-11-27T08:15:44.930Z,34.09
2018-11-27T08:20:48.107Z,35.67
2018-11-27T08:25:51.337Z,36.72
2018-11-27T08:30:54.554Z,37.69
2018-11-27T08:35:57.758Z,38.37
2018-11-27T08:41:00.953Z,38.29
2018-11-27T08:46:04.170Z,38.41
2018-11-27T08:51:07.377Z,38.71
2018-11-27T08:56:10.602Z,39.10
2018-11-27T09:01:13.803Z,38.85
2018-11-27T09:06:17.020Z,38.94
2018-11-27T09:11:20.221Z,39.46
2018-11-27T09:16:23.425Z,39.47
2018-11-27T09:21:26.626Z,39.39
2018-11-27T09:26:29.850Z,39.16
2018-11-27T09:31:33.049Z,39.17
2018-11-27T09:36:36.254Z,39.72
2018-11-27T09:41:39.474Z,39.66
2018-11-27T09:46:42.681Z,39.92
2018-11-27T09:51:45.894Z,40.38
2018-11-27T09:56:49.090Z,40.18
2018-11-27T10:01:52.310Z,40.64
2018-11-27T10:06:55.514Z,40.37
2018-11-27T10:11:58.725Z,40.38
2018-11-27T10:17:01.944Z,40.31
2018-11-27T10:22:05.195Z,40.71
2018-11-27T10:27:08.371Z,41.06
2018-11-27T10:32:11.549Z,40.78
2018-11-27T10:37:14.796Z,40.97
2018-11-27T10:42:17.966Z,41.84
2018-11-27T10:47:21.209Z,41.85
2018-11-27T10:52:24.400Z,42.24
2018-11-27T10:57:27.590Z,42.14
2018-11-27T11:02:34.049Z,42.69
2018-11-27T11:07:37.286Z,43.14
2018-11-27T11:12:40.494Z,42.96
2018-11-27T11:17:43.694Z,42.74
2018-11-27T11:22:46.927Z,43.20
2018-11-27T11:27:51.758Z,43.45
2018-11-27T11:32:54.973Z,43.55
2018-11-27T11:37:58.178Z,43.04
2018-11-27T11:43:01.383Z,43.84
2018-11-27T11:48:04.566Z,43.48
2018-11-27T11:53:12.205Z,43.30
2018-11-27T11:58:15.409Z,42.81
2018-11-27T12:03:18.586Z,42.99
2018-11-27T12:08:21.845Z,42.53
2018-11-27T12:13:25.044Z,42.67
2018-11-27T12:18:28.262Z,43.04
2018-11-27T12:23:31.458Z,43.13
2018-11-27T12:28:34.673Z,43.49
2018-11-27T12:33:37.867Z,44.41
2018-11-27T12:38:41.077Z,44.28
2018-11-27T12:43:44.302Z,43.94
2018-11-27T12:48:47.498Z,43.88
2018-11-27T12:53:50.714Z,44.16
2018-11-27T12:58:53.918Z,43.87
2018-11-27T13:03:57.162Z,44.18
2018-11-27T13:09:00.353Z,44.30
2018-11-27T13:14:03.554Z,44.12
2018-11-27T13:19:06.745Z,44.05
2018-11-27T13:24:09.971Z,44.04
2018-11-27T13:29:13.192Z,44.12
2018-11-27T13:34:16.598Z,44.31
2018-11-27T13:39:31.578Z,44.54
2018-11-27T13:44:34.759Z,44.65
2018-11-27T13:49:38.003Z,29.44
2018-11-27T13:54:41.226Z,27.12
2018-11-27T13:59:44.406Z,28.73
2018-11-27T14:04:47.609Z,31.53
2018-11-27T14:09:50.826Z,34.02
2018-11-27T14:14:54.040Z,34.96
2018-11-27T14:19:57.234Z,36.33
2018-11-27T14:25:00.454Z,37.01
2018-11-27T14:30:08.733Z,37.41
2018-11-27T14:35:12.610Z,37.61
2018-11-27T14:40:16.895Z,38.13
2018-11-27T14:45:21.537Z,38.48
2018-11-27T14:50:24.745Z,39.09
2018-11-27T14:55:30.961Z,38.90
2018-11-27T15:00:34.184Z,39.18
2018-11-27T15:05:38.778Z,39.21
2018-11-27T15:10:42.030Z,39.42
2018-11-27T15:15:45.230Z,40.07
2018-11-27T15:20:48.434Z,39.74
2018-11-27T15:25:51.678Z,42.04
2018-11-27T15:30:54.863Z,40.70
2018-11-27T15:35:58.070Z,40.83
2018-11-27T15:41:01.299Z,41.11
2018-11-27T15:46:04.510Z,42.16
2018-11-27T15:51:07.704Z,42.23
2018-11-27T15:56:10.866Z,42.68
2018-11-27T16:01:14.021Z,42.78
2018-11-27T16:06:17.223Z,42.68
2018-11-27T16:11:20.427Z,42.42
2018-11-27T16:16:23.659Z,42.35
2018-11-27T16:21:26.848Z,42.51
2018-11-27T16:26:30.054Z,42.77
2018-11-27T16:31:33.271Z,42.79
2018-11-27T16:36:36.430Z,42.97
2018-11-27T16:41:39.670Z,42.72
2018-11-27T16:46:42.874Z,42.57
2018-11-27T16:51:46.103Z,42.62
2018-11-27T16:56:49.297Z,43.14
2018-11-27T17:01:52.505Z,43.02
2018-11-27T17:06:55.713Z,42.83
2018-11-27T17:11:58.930Z,42.62
2018-11-27T17:17:02.092Z,42.88
2018-11-27T17:22:07.019Z,42.94
2018-11-27T17:27:08.949Z,43.04
2018-11-27T17:32:12.163Z,43.21
2018-11-27T18:05:23.754Z,43.36
2018-11-27T18:10:26.935Z,43.47
2018-11-27T18:15:30.150Z,43.51
2018-11-27T18:20:33.342Z,43.20
2018-11-27T18:25:36.527Z,43.15
2018-11-27T18:30:39.782Z,44.01
2018-11-27T18:35:42.942Z,44.61
2018-11-27T18:40:46.183Z,44.63
2018-11-27T18:45:49.401Z,44.36
2018-11-27T18:50:52.567Z,44.99
2018-11-27T18:55:55.985Z,45.17
2018-11-27T19:00:59.198Z,44.40
2018-11-27T19:06:02.358Z,43.76
2018-11-27T19:11:06.026Z,43.79
2018-11-27T19:50:03.583Z,43.18
2018-11-27T19:55:08.690Z,42.89
2018-11-27T20:00:28.106Z,42.59
2018-11-27T20:05:31.359Z,42.81
2018-11-27T20:10:34.556Z,42.49
2018-11-27T20:15:37.729Z,42.74
2018-11-27T20:20:40.958Z,42.83
2018-11-27T20:25:44.155Z,42.59
2018-11-27T20:30:47.381Z,42.66
2018-11-27T20:35:50.585Z,43.01
2018-11-27T20:40:53.815Z,43.05
2018-11-27T20:45:59.719Z,43.14
2018-11-27T20:51:04.887Z,42.68
2018-11-27T20:56:08.563Z,43.07
2018-11-27T21:01:11.757Z,43.34
2018-11-27T21:06:14.972Z,43.23
2018-11-27T21:11:18.173Z,43.33
2018-11-27T21:16:21.381Z,43.21
2018-11-27T21:21:24.595Z,43.62
2018-11-27T21:26:27.829Z,43.75
2018-11-27T21:31:31.015Z,43.34
2018-11-27T21:36:34.186Z,43.78
2018-11-27T21:41:37.425Z,43.33
2018-11-27T21:46:40.599Z,43.81
2018-11-27T21:51:43.785Z,44.02
2018-11-27T21:56:47.061Z,43.72
2018-11-27T22:01:50.254Z,43.89
2018-11-27T22:06:53.461Z,43.75
2018-11-27T22:11:56.673Z,43.84
2018-11-27T22:16:59.887Z,43.74
2018-11-27T22:22:03.094Z,44.14
2018-11-27T22:27:06.510Z,44.21
2018-11-27T22:32:09.685Z,44.28
2018-11-27T22:37:13.142Z,44.31
2018-11-27T22:42:16.439Z,44.40
2018-11-27T22:47:19.663Z,43.74
2018-11-27T22:52:22.858Z,44.45
2018-11-27T22:57:26.061Z,44.10
2018-11-27T23:02:29.281Z,44.54
2018-11-27T23:07:37.886Z,44.44
2018-11-27T23:12:41.122Z,44.58
2018-11-27T23:17:44.311Z,44.44
2018-11-27T23:22:47.474Z,44.08
2018-11-27T23:27:50.839Z,44.15
2018-11-27T23:32:54.054Z,44.53
2018-11-27T23:37:57.242Z,44.15
2018-11-27T23:43:00.974Z,44.45
2018-11-27T23:48:04.187Z,44.19
2018-11-27T23:53:07.917Z,44.53
2018-11-27T23:58:11.205Z,44.39
